Time;durP1;ratioP1;P1;durP2;ratioP2;P2;SDS_P1;SDS_P2;PMS_P1;PMS_P2;Temp;Humidity;BMP_temperature;BMP_pressure;BME280_temperature;BME280_humidity;BME280_pressure;Samples;Min_cycle;Max_cycle;Signal;HPM_P1;HPM_P2
2022/12/16 00:02:19;;;;;;;21.77;9.63;;;;;;;;;;4998180;28;20042;-72
2022/12/16 00:04:45;;;;;;;12.77;5.03;;;;;;;;;;5003278;28;20072;-73
2022/12/16 00:07:11;;;;;;;13.40;4.90;;;;;;;;;;5002989;28;20065;-72
2022/12/16 00:09:37;;;;;;;9.60;5.13;;;;;;;;;;5003873;28;20030;-72
2022/12/16 00:12:03;;;;;;;12.57;5.93;;;;;;;;;;4999935;28;20034;-72
2022/12/16 00:14:30;;;;;;;10.30;5.35;;;;;;;;;;4998060;28;20038;-73
2022/12/16 00:16:56;;;;;;;12.30;4.38;;;;;;;;;;4998079;28;20109;-72
2022/12/16 00:19:22;;;;;;;11.30;5.07;;;;;;;;;;4998690;28;20141;-72
2022/12/16 00:21:48;;;;;;;12.55;6.28;;;;;;;;;;4985261;28;20125;-73
2022/12/16 00:24:14;;;;;;;10.15;5.85;;;;;;;;;;5002124;28;20496;-73
2022/12/16 00:26:40;;;;;;;8.27;4.25;;;;;;;;;;4998010;28;20112;-73
2022/12/16 00:29:06;;;;;;;8.15;3.72;;;;;;;;;;4999603;28;20038;-72
2022/12/16 00:31:32;;;;;;;7.00;3.95;;;;;;;;;;5000372;28;20042;-73
2022/12/16 00:33:58;;;;;;;6.38;3.30;;;;;;;;;;4997297;28;20037;-73
2022/12/16 00:36:24;;;;;;;5.60;3.05;;;;;;;;;;5000076;28;20034;-72
2022/12/16 00:38:53;;;;;;;6.30;3.28;;;;;;;;;;4997517;28;20536;-73
2022/12/16 00:41:19;;;;;;;5.95;3.20;;;;;;;;;;4997885;28;20439;-72
2022/12/16 00:43:45;;;;;;;7.30;3.30;;;;;;;;;;4997553;28;20137;-72
2022/12/16 00:46:11;;;;;;;13.48;8.30;;;;;;;;;;5003667;28;20037;-73
2022/12/16 00:48:37;;;;;;;36.40;18.35;;;;;;;;;;4998011;28;20027;-72
2022/12/16 00:51:04;;;;;;;42.38;19.70;;;;;;;;;;5004514;28;20045;-72
2022/12/16 00:53:30;;;;;;;49.33;22.23;;;;;;;;;;5000685;28;20576;-72
2022/12/16 00:56:06;;;;;;;38.25;16.83;;;;;;;;;;4997890;28;20026;-73
2022/12/16 00:58:32;;;;;;;38.05;17.00;;;;;;;;;;4995982;28;20495;-73
2022/12/16 01:00:59;;;;;;;40.58;18.70;;;;;;;;;;4998307;28;20042;-73
2022/12/16 01:03:25;;;;;;;67.60;29.17;;;;;;;;;;4994467;28;22198;-73
2022/12/16 01:05:51;;;;;;;55.83;21.95;;;;;;;;;;4998204;28;20422;-72
2022/12/16 01:08:17;;;;;;;33.92;15.20;;;;;;;;;;5000172;28;20026;-72
2022/12/16 01:10:49;;;;;;;29.50;12.07;;;;;;;;;;5000913;28;20038;-73
2022/12/16 01:13:15;;;;;;;18.73;7.50;;;;;;;;;;4998174;28;20033;-73
2022/12/16 01:15:41;;;;;;;12.52;4.07;;;;;;;;;;4999223;28;20034;-73
2022/12/16 01:18:07;;;;;;;11.73;4.03;;;;;;;;;;4999798;28;20042;-72
2022/12/16 01:20:33;;;;;;;10.07;4.68;;;;;;;;;;4996257;28;20033;-73
2022/12/16 01:22:59;;;;;;;9.35;4.22;;;;;;;;;;4999533;28;20393;-72
2022/12/16 01:25:25;;;;;;;8.95;4.20;;;;;;;;;;4998868;28;20129;-72
2022/12/16 01:27:51;;;;;;;9.50;4.45;;;;;;;;;;5001949;28;20052;-72
2022/12/16 01:30:17;;;;;;;9.52;5.00;;;;;;;;;;4995911;28;20053;-72
2022/12/16 01:32:44;;;;;;;8.93;4.65;;;;;;;;;;5002279;28;20520;-72
2022/12/16 01:35:10;;;;;;;8.32;4.10;;;;;;;;;;4999931;28;20033;-72
2022/12/16 01:37:36;;;;;;;8.40;4.55;;;;;;;;;;4998136;28;20026;-73
2022/12/16 01:40:02;;;;;;;8.40;3.90;;;;;;;;;;4998794;28;20046;-72
2022/12/16 01:42:30;;;;;;;7.05;3.75;;;;;;;;;;4996431;28;20049;-72
2022/12/16 01:44:56;;;;;;;9.07;4.45;;;;;;;;;;4995561;28;20030;-73
2022/12/16 01:47:25;;;;;;;7.82;4.57;;;;;;;;;;5000612;28;20069;-72
2022/12/16 01:49:56;;;;;;;12.02;7.78;;;;;;;;;;4999174;28;20042;-73
2022/12/16 01:52:25;;;;;;;15.00;10.32;;;;;;;;;;4998992;28;20065;-72
2022/12/16 01:54:54;;;;;;;18.17;12.57;;;;;;;;;;4997910;28;20038;-72
2022/12/16 01:57:23;;;;;;;14.35;10.23;;;;;;;;;;4998088;28;20513;-72
2022/12/16 01:59:50;;;;;;;13.27;8.75;;;;;;;;;;5001485;28;20069;-73
2022/12/16 02:02:17;;;;;;;12.68;7.35;;;;;;;;;;5000307;28;20104;-73
2022/12/16 02:07:28;;;;;;;10.38;5.78;;;;;;;;;;5002771;28;20220;-73
2022/12/16 02:09:54;;;;;;;16.80;10.95;;;;;;;;;;5001592;28;20042;-73
2022/12/16 02:12:29;;;;;;;21.38;13.68;;;;;;;;;;5003138;28;20160;-72
2022/12/16 02:14:58;;;;;;;16.25;8.10;;;;;;;;;;5004834;28;20029;-72
2022/12/16 02:17:27;;;;;;;14.38;8.07;;;;;;;;;;5000884;28;20694;-73
2022/12/16 02:20:32;;;;;;;13.98;7.00;;;;;;;;;;5003814;28;20034;-72
2022/12/16 02:22:58;;;;;;;12.52;6.25;;;;;;;;;;4935815;29;20042;-72
2022/12/16 02:25:25;;;;;;;8.82;4.93;;;;;;;;;;4933159;29;20083;-72
2022/12/16 02:27:58;;;;;;;16.73;9.95;;;;;;;;;;4965378;28;20046;-72
2022/12/16 02:30:36;;;;;;;12.15;7.43;;;;;;;;;;5003488;28;20060;-72
2022/12/16 02:33:05;;;;;;;14.65;8.90;;;;;;;;;;5001045;28;20557;-72
2022/12/16 02:35:37;;;;;;;9.68;6.75;;;;;;;;;;5004725;28;20073;-72
2022/12/16 02:38:03;;;;;;;12.48;7.30;;;;;;;;;;5003059;28;20771;-73
2022/12/16 02:40:35;;;;;;;11.52;7.03;;;;;;;;;;5005302;28;20045;-73
2022/12/16 02:43:08;;;;;;;13.85;8.95;;;;;;;;;;4999663;28;20065;-72
2022/12/16 02:45:34;;;;;;;15.43;8.30;;;;;;;;;;5000516;28;20865;-72
2022/12/16 02:48:00;;;;;;;15.07;9.48;;;;;;;;;;4999479;28;20064;-73
2022/12/16 02:50:49;;;;;;;19.42;12.07;;;;;;;;;;5001239;28;20106;-72
2022/12/16 02:53:16;;;;;;;15.50;10.05;;;;;;;;;;4989971;28;20484;-72
2022/12/16 02:56:06;;;;;;;13.63;9.00;;;;;;;;;;5004348;28;20113;-73
2022/12/16 02:58:38;;;;;;;13.90;8.55;;;;;;;;;;4998888;28;20045;-72
2022/12/16 03:01:19;;;;;;;13.13;7.88;;;;;;;;;;4996448;28;20038;-73
2022/12/16 03:03:49;;;;;;;12.50;7.97;;;;;;;;;;4996465;28;20038;-73
2022/12/16 03:06:17;;;;;;;11.82;6.90;;;;;;;;;;4999979;28;20036;-72
2022/12/16 03:08:45;;;;;;;10.90;6.72;;;;;;;;;;4998629;28;20042;-73
2022/12/16 03:11:12;;;;;;;13.63;9.23;;;;;;;;;;5003198;28;20045;-73
2022/12/16 03:13:45;;;;;;;11.60;7.70;;;;;;;;;;4980009;28;20030;-73
2022/12/16 03:16:12;;;;;;;10.25;6.50;;;;;;;;;;5004076;28;20112;-73
2022/12/16 03:18:39;;;;;;;14.45;8.73;;;;;;;;;;4994182;28;20042;-73
2022/12/16 03:21:07;;;;;;;15.38;9.55;;;;;;;;;;4995318;28;20037;-73
2022/12/16 03:23:39;;;;;;;16.02;9.38;;;;;;;;;;5000531;28;20073;-73
2022/12/16 03:26:13;;;;;;;13.82;8.65;;;;;;;;;;4998909;28;20125;-72
2022/12/16 03:28:43;;;;;;;12.23;8.05;;;;;;;;;;4997565;28;20034;-72
2022/12/16 03:31:12;;;;;;;15.45;10.60;;;;;;;;;;5001470;28;20076;-72
2022/12/16 03:33:41;;;;;;;14.13;8.05;;;;;;;;;;4998944;28;20626;-73
2022/12/16 03:36:13;;;;;;;11.27;7.13;;;;;;;;;;5000955;28;20061;-72
2022/12/16 03:38:40;;;;;;;13.88;9.07;;;;;;;;;;4996894;28;20101;-72
2022/12/16 03:41:06;;;;;;;16.13;10.20;;;;;;;;;;4999961;28;20056;-72
2022/12/16 03:43:32;;;;;;;9.98;6.07;;;;;;;;;;4998828;28;20038;-73
2022/12/16 03:46:01;;;;;;;15.75;10.65;;;;;;;;;;5003816;28;20038;-72
2022/12/16 03:48:27;;;;;;;12.93;5.80;;;;;;;;;;4998565;28;20105;-73
2022/12/16 03:50:53;;;;;;;10.57;5.95;;;;;;;;;;5000668;28;20065;-73
2022/12/16 03:53:19;;;;;;;8.68;5.53;;;;;;;;;;4999062;28;20131;-73
2022/12/16 03:55:44;;;;;;;9.52;5.30;;;;;;;;;;5000530;28;20033;-72
2022/12/16 03:58:10;;;;;;;9.20;5.30;;;;;;;;;;4999429;28;20026;-73
2022/12/16 04:00:36;;;;;;;13.15;7.47;;;;;;;;;;4997688;28;20034;-73
2022/12/16 04:03:02;;;;;;;11.68;5.68;;;;;;;;;;4998851;28;20076;-73
2022/12/16 04:05:28;;;;;;;9.77;5.90;;;;;;;;;;4998170;28;20038;-72
2022/12/16 04:07:54;;;;;;;20.95;11.80;;;;;;;;;;4999712;28;20045;-72
2022/12/16 04:24:17;;;;;;;24.23;13.02;;;;;;;;;;4995365;28;20080;-73
2022/12/16 04:24:21;;;;;;;22.38;12.55;;;;;;;;;;4998194;28;20079;-73
2022/12/16 04:29:32;;;;;;;15.35;9.15;;;;;;;;;;4994344;28;20057;-72
2022/12/16 04:31:59;;;;;;;17.25;8.52;;;;;;;;;;5004643;28;20488;-72
2022/12/16 04:34:25;;;;;;;16.30;9.27;;;;;;;;;;4984500;28;20030;-72
